sensor_id;sensor_type;location;lat;lon;timestamp;P1;durP1;ratioP1;P2;durP2;ratioP2
5491;SDS011;2768;53.540;10.224;2023-03-01T00:05:16;6.50;;;5.90;;
5491;SDS011;2768;53.540;10.224;2023-03-01T00:11:12;6.57;;;5.87;;
5491;SDS011;2768;53.540;10.224;2023-03-01T00:17:08;10.50;;;6.10;;
5491;SDS011;2768;53.540;10.224;2023-03-01T00:23:02;7.53;;;5.50;;
5491;SDS011;2768;53.540;10.224;2023-03-01T00:28:56;7.70;;;6.23;;
5491;SDS011;2768;53.540;10.224;2023-03-01T00:34:49;8.37;;;5.57;;
5491;SDS011;2768;53.540;10.224;2023-03-01T00:40:49;6.47;;;5.40;;
5491;SDS011;2768;53.540;10.224;2023-03-01T00:46:42;7.37;;;5.67;;
5491;SDS011;2768;53.540;10.224;2023-03-01T00:52:36;7.00;;;5.30;;
5491;SDS011;2768;53.540;10.224;2023-03-01T00:58:31;5.10;;;4.63;;
5491;SDS011;2768;53.540;10.224;2023-03-01T01:04:26;6.10;;;5.47;;
5491;SDS011;2768;53.540;10.224;2023-03-01T01:10:19;5.40;;;4.90;;
5491;SDS011;2768;53.540;10.224;2023-03-01T01:16:14;6.87;;;5.20;;
5491;SDS011;2768;53.540;10.224;2023-03-01T01:22:08;6.40;;;5.33;;
5491;SDS011;2768;53.540;10.224;2023-03-01T01:28:01;7.53;;;5.47;;
5491;SDS011;2768;53.540;10.224;2023-03-01T01:33:56;8.40;;;5.53;;
5491;SDS011;2768;53.540;10.224;2023-03-01T01:39:51;6.73;;;5.60;;
5491;SDS011;2768;53.540;10.224;2023-03-01T01:45:44;7.27;;;5.80;;
5491;SDS011;2768;53.540;10.224;2023-03-01T01:51:40;5.90;;;5.30;;
5491;SDS011;2768;53.540;10.224;2023-03-01T01:57:37;5.63;;;5.03;;
5491;SDS011;2768;53.540;10.224;2023-03-01T02:03:33;6.63;;;5.87;;
5491;SDS011;2768;53.540;10.224;2023-03-01T02:09:32;7.00;;;5.63;;
5491;SDS011;2768;53.540;10.224;2023-03-01T02:15:26;6.17;;;5.57;;
5491;SDS011;2768;53.540;10.224;2023-03-01T02:21:29;7.10;;;4.80;;
5491;SDS011;2768;53.540;10.224;2023-03-01T02:27:31;5.17;;;4.67;;
5491;SDS011;2768;53.540;10.224;2023-03-01T02:33:31;6.70;;;4.97;;
5491;SDS011;2768;53.540;10.224;2023-03-01T02:39:29;4.57;;;4.17;;
5491;SDS011;2768;53.540;10.224;2023-03-01T02:45:27;5.10;;;4.60;;
5491;SDS011;2768;53.540;10.224;2023-03-01T02:51:27;7.00;;;5.07;;
5491;SDS011;2768;53.540;10.224;2023-03-01T02:57:39;6.20;;;5.50;;
5491;SDS011;2768;53.540;10.224;2023-03-01T03:03:34;5.67;;;5.10;;
5491;SDS011;2768;53.540;10.224;2023-03-01T03:09:29;5.13;;;4.63;;
5491;SDS011;2768;53.540;10.224;2023-03-01T03:15:23;9.57;;;5.67;;
5491;SDS011;2768;53.540;10.224;2023-03-01T03:21:19;6.90;;;6.20;;
5491;SDS011;2768;53.540;10.224;2023-03-01T03:27:13;9.03;;;6.83;;
5491;SDS011;2768;53.540;10.224;2023-03-01T03:33:06;7.77;;;6.23;;
5491;SDS011;2768;53.540;10.224;2023-03-01T03:39:03;11.03;;;6.10;;
5491;SDS011;2768;53.540;10.224;2023-03-01T03:44:58;7.17;;;6.03;;
5491;SDS011;2768;53.540;10.224;2023-03-01T03:50:52;8.30;;;6.50;;
5491;SDS011;2768;53.540;10.224;2023-03-01T03:56:47;8.73;;;6.93;;
5491;SDS011;2768;53.540;10.224;2023-03-01T04:02:42;8.87;;;6.63;;
5491;SDS011;2768;53.540;10.224;2023-03-01T04:08:36;8.50;;;6.73;;
5491;SDS011;2768;53.540;10.224;2023-03-01T04:14:29;7.07;;;6.23;;
5491;SDS011;2768;53.540;10.224;2023-03-01T04:20:24;7.23;;;6.50;;
5491;SDS011;2768;53.540;10.224;2023-03-01T04:26:19;7.33;;;6.50;;
5491;SDS011;2768;53.540;10.224;2023-03-01T04:32:12;6.80;;;6.20;;
5491;SDS011;2768;53.540;10.224;2023-03-01T04:38:10;7.57;;;6.47;;
5491;SDS011;2768;53.540;10.224;2023-03-01T04:44:03;6.70;;;6.00;;
5491;SDS011;2768;53.540;10.224;2023-03-01T04:49:57;9.40;;;6.60;;
5491;SDS011;2768;53.540;10.224;2023-03-01T04:55:52;7.00;;;6.03;;
5491;SDS011;2768;53.540;10.224;2023-03-01T05:01:46;7.00;;;6.30;;
5491;SDS011;2768;53.540;10.224;2023-03-01T05:07:39;8.87;;;6.57;;
5491;SDS011;2768;53.540;10.224;2023-03-01T05:13:34;8.00;;;6.50;;
5491;SDS011;2768;53.540;10.224;2023-03-01T05:19:27;9.37;;;6.37;;
5491;SDS011;2768;53.540;10.224;2023-03-01T05:25:20;6.80;;;6.10;;
5491;SDS011;2768;53.540;10.224;2023-03-01T05:31:15;8.10;;;6.60;;
5491;SDS011;2768;53.540;10.224;2023-03-01T05:37:09;10.50;;;6.10;;
5491;SDS011;2768;53.540;10.224;2023-03-01T05:43:02;8.43;;;6.00;;
5491;SDS011;2768;53.540;10.224;2023-03-01T05:48:57;8.87;;;6.50;;
5491;SDS011;2768;53.540;10.224;2023-03-01T05:54:51;6.97;;;6.30;;
5491;SDS011;2768;53.540;10.224;2023-03-01T06:00:45;6.83;;;6.10;;
5491;SDS011;2768;53.540;10.224;2023-03-01T06:06:41;7.70;;;6.57;;
5491;SDS011;2768;53.540;10.224;2023-03-01T06:12:34;8.20;;;6.30;;
5491;SDS011;2768;53.540;10.224;2023-03-01T06:18:29;9.10;;;7.10;;
5491;SDS011;2768;53.540;10.224;2023-03-01T06:24:24;9.10;;;6.07;;
5491;SDS011;2768;53.540;10.224;2023-03-01T06:30:20;7.73;;;6.50;;
5491;SDS011;2768;53.540;10.224;2023-03-01T06:36:14;6.17;;;5.57;;
5491;SDS011;2768;53.540;10.224;2023-03-01T06:42:11;8.20;;;6.30;;
5491;SDS011;2768;53.540;10.224;2023-03-01T06:48:04;9.10;;;6.37;;
5491;SDS011;2768;53.540;10.224;2023-03-01T06:53:59;7.17;;;6.03;;
5491;SDS011;2768;53.540;10.224;2023-03-01T06:59:53;8.03;;;6.10;;
5491;SDS011;2768;53.540;10.224;2023-03-01T07:05:48;7.60;;;6.30;;
5491;SDS011;2768;53.540;10.224;2023-03-01T07:11:42;18.37;;;10.67;;
5491;SDS011;2768;53.540;10.224;2023-03-01T07:17:37;13.33;;;9.70;;
5491;SDS011;2768;53.540;10.224;2023-03-01T07:23:30;7.40;;;6.60;;
5491;SDS011;2768;53.540;10.224;2023-03-01T07:29:23;7.57;;;6.60;;
5491;SDS011;2768;53.540;10.224;2023-03-01T07:35:17;6.87;;;6.10;;
5491;SDS011;2768;53.540;10.224;2023-03-01T07:41:10;8.00;;;6.40;;
5491;SDS011;2768;53.540;10.224;2023-03-01T07:47:04;16.93;;;8.83;;
5491;SDS011;2768;53.540;10.224;2023-03-01T07:52:59;14.10;;;8.90;;
5491;SDS011;2768;53.540;10.224;2023-03-01T07:58:52;10.83;;;7.90;;
5491;SDS011;2768;53.540;10.224;2023-03-01T08:04:45;10.87;;;7.77;;
5491;SDS011;2768;53.540;10.224;2023-03-01T08:10:39;11.30;;;8.20;;
5491;SDS011;2768;53.540;10.224;2023-03-01T08:48:28;13.13;;;7.83;;
5491;SDS011;2768;53.540;10.224;2023-03-01T09:00:48;17.63;;;8.97;;
5491;SDS011;2768;53.540;10.224;2023-03-01T09:06:43;13.27;;;8.60;;
5491;SDS011;2768;53.540;10.224;2023-03-01T09:12:36;11.30;;;9.67;;
5491;SDS011;2768;53.540;10.224;2023-03-01T09:18:29;10.90;;;8.70;;
5491;SDS011;2768;53.540;10.224;2023-03-01T09:24:24;13.73;;;10.37;;
5491;SDS011;2768;53.540;10.224;2023-03-01T09:30:18;11.60;;;9.60;;
5491;SDS011;2768;53.540;10.224;2023-03-01T09:36:13;11.27;;;10.10;;
5491;SDS011;2768;53.540;10.224;2023-03-01T09:42:12;15.07;;;9.00;;
5491;SDS011;2768;53.540;10.224;2023-03-01T09:48:09;13.03;;;10.40;;
5491;SDS011;2768;53.540;10.224;2023-03-01T09:54:08;11.40;;;9.30;;
5491;SDS011;2768;53.540;10.224;2023-03-01T10:00:15;11.07;;;8.20;;
5491;SDS011;2768;53.540;10.224;2023-03-01T10:06:21;12.23;;;8.77;;
5491;SDS011;2768;53.540;10.224;2023-03-01T10:12:27;11.33;;;9.10;;
5491;SDS011;2768;53.540;10.224;2023-03-01T10:18:26;14.00;;;9.97;;
5491;SDS011;2768;53.540;10.224;2023-03-01T10:24:24;9.20;;;8.20;;
5491;SDS011;2768;53.540;10.224;2023-03-01T10:30:19;9.30;;;8.30;;
5491;SDS011;2768;53.540;10.224;2023-03-01T10:36:16;9.03;;;8.13;;
5491;SDS011;2768;53.540;10.224;2023-03-01T10:42:19;8.03;;;6.90;;
5491;SDS011;2768;53.540;10.224;2023-03-01T10:48:17;8.93;;;7.63;;
5491;SDS011;2768;53.540;10.224;2023-03-01T10:54:17;9.53;;;8.53;;
5491;SDS011;2768;53.540;10.224;2023-03-01T11:00:16;13.50;;;8.60;;
5491;SDS011;2768;53.540;10.224;2023-03-01T11:06:20;8.63;;;7.73;;
5491;SDS011;2768;53.540;10.224;2023-03-01T11:12:16;10.00;;;9.00;;
5491;SDS011;2768;53.540;10.224;2023-03-01T11:18:18;9.43;;;7.30;;
5491;SDS011;2768;53.540;10.224;2023-03-01T11:24:34;7.70;;;6.90;;
5491;SDS011;2768;53.540;10.224;2023-03-01T11:30:36;8.70;;;6.80;;
5491;SDS011;2768;53.540;10.224;2023-03-01T11:36:34;7.30;;;5.93;;
5491;SDS011;2768;53.540;10.224;2023-03-01T11:42:37;7.40;;;6.60;;
5491;SDS011;2768;53.540;10.224;2023-03-01T11:48:51;7.53;;;6.83;;
5491;SDS011;2768;53.540;10.224;2023-03-01T11:54:56;8.83;;;7.93;;
5491;SDS011;2768;53.540;10.224;2023-03-01T12:01:07;8.57;;;6.97;;
5491;SDS011;2768;53.540;10.224;2023-03-01T12:07:11;8.70;;;7.90;;
5491;SDS011;2768;53.540;10.224;2023-03-01T12:13:23;8.77;;;7.87;;
5491;SDS011;2768;53.540;10.224;2023-03-01T12:19:44;9.37;;;8.40;;
5491;SDS011;2768;53.540;10.224;2023-03-01T12:25:51;9.00;;;8.10;;
5491;SDS011;2768;53.540;10.224;2023-03-01T12:32:00;8.10;;;7.30;;
5491;SDS011;2768;53.540;10.224;2023-03-01T12:38:02;9.37;;;7.50;;
5491;SDS011;2768;53.540;10.224;2023-03-01T12:44:11;9.07;;;6.80;;
5491;SDS011;2768;53.540;10.224;2023-03-01T12:50:21;7.60;;;6.23;;
5491;SDS011;2768;53.540;10.224;2023-03-01T12:56:19;4.93;;;4.40;;
5491;SDS011;2768;53.540;10.224;2023-03-01T13:02:17;6.13;;;5.43;;
5491;SDS011;2768;53.540;10.224;2023-03-01T13:08:16;5.97;;;5.37;;
5491;SDS011;2768;53.540;10.224;2023-03-01T13:20:46;6.00;;;4.67;;
5491;SDS011;2768;53.540;10.224;2023-03-01T13:39:40;5.73;;;5.07;;
5491;SDS011;2768;53.540;10.224;2023-03-01T13:45:35;7.37;;;5.33;;
5491;SDS011;2768;53.540;10.224;2023-03-01T13:51:31;7.00;;;5.20;;
5491;SDS011;2768;53.540;10.224;2023-03-01T13:57:28;5.17;;;4.20;;
5491;SDS011;2768;53.540;10.224;2023-03-01T14:03:27;5.00;;;4.50;;
5491;SDS011;2768;53.540;10.224;2023-03-01T14:09:22;4.77;;;4.37;;
5491;SDS011;2768;53.540;10.224;2023-03-01T14:15:22;5.90;;;3.63;;
5491;SDS011;2768;53.540;10.224;2023-03-01T14:21:19;5.20;;;4.53;;
5491;SDS011;2768;53.540;10.224;2023-03-01T14:27:14;5.10;;;3.87;;
5491;SDS011;2768;53.540;10.224;2023-03-01T14:33:19;4.13;;;3.70;;
5491;SDS011;2768;53.540;10.224;2023-03-01T14:39:18;5.60;;;4.97;;
5491;SDS011;2768;53.540;10.224;2023-03-01T14:45:12;5.30;;;4.80;;
5491;SDS011;2768;53.540;10.224;2023-03-01T14:51:09;5.70;;;5.10;;
5491;SDS011;2768;53.540;10.224;2023-03-01T14:57:05;4.37;;;3.97;;
5491;SDS011;2768;53.540;10.224;2023-03-01T15:02:59;4.33;;;3.97;;
5491;SDS011;2768;53.540;10.224;2023-03-01T15:08:57;4.67;;;4.27;;
5491;SDS011;2768;53.540;10.224;2023-03-01T15:14:50;3.60;;;3.30;;
5491;SDS011;2768;53.540;10.224;2023-03-01T15:20:54;4.37;;;4.00;;
5491;SDS011;2768;53.540;10.224;2023-03-01T15:26:59;4.60;;;4.17;;
5491;SDS011;2768;53.540;10.224;2023-03-01T15:33:17;4.47;;;4.07;;
5491;SDS011;2768;53.540;10.224;2023-03-01T15:39:32;4.13;;;3.73;;
5491;SDS011;2768;53.540;10.224;2023-03-01T15:45:31;3.63;;;3.30;;
5491;SDS011;2768;53.540;10.224;2023-03-01T15:51:30;3.90;;;3.47;;
5491;SDS011;2768;53.540;10.224;2023-03-01T15:57:25;4.73;;;4.27;;
5491;SDS011;2768;53.540;10.224;2023-03-01T16:03:19;6.77;;;5.10;;
5491;SDS011;2768;53.540;10.224;2023-03-01T16:09:13;6.70;;;6.00;;
5491;SDS011;2768;53.540;10.224;2023-03-01T16:15:09;5.83;;;5.17;;
5491;SDS011;2768;53.540;10.224;2023-03-01T16:21:12;5.23;;;4.73;;
5491;SDS011;2768;53.540;10.224;2023-03-01T16:27:07;5.13;;;4.53;;
5491;SDS011;2768;53.540;10.224;2023-03-01T16:33:01;4.60;;;3.93;;
5491;SDS011;2768;53.540;10.224;2023-03-01T16:39:17;4.40;;;4.00;;
5491;SDS011;2768;53.540;10.224;2023-03-01T16:45:10;4.30;;;3.90;;
5491;SDS011;2768;53.540;10.224;2023-03-01T16:51:15;4.40;;;4.00;;
5491;SDS011;2768;53.540;10.224;2023-03-01T16:57:10;5.20;;;4.70;;
5491;SDS011;2768;53.540;10.224;2023-03-01T17:03:03;4.60;;;3.90;;
5491;SDS011;2768;53.540;10.224;2023-03-01T17:08:57;5.00;;;4.60;;
5491;SDS011;2768;53.540;10.224;2023-03-01T17:14:51;6.47;;;4.93;;
5491;SDS011;2768;53.540;10.224;2023-03-01T17:20:44;5.10;;;4.70;;
5491;SDS011;2768;53.540;10.224;2023-03-01T17:26:38;5.63;;;5.13;;
5491;SDS011;2768;53.540;10.224;2023-03-01T17:32:33;5.53;;;4.90;;
5491;SDS011;2768;53.540;10.224;2023-03-01T17:38:27;5.20;;;4.77;;
5491;SDS011;2768;53.540;10.224;2023-03-01T17:44:20;6.00;;;5.20;;
5491;SDS011;2768;53.540;10.224;2023-03-01T17:50:15;5.33;;;4.83;;
5491;SDS011;2768;53.540;10.224;2023-03-01T17:56:09;5.50;;;4.97;;
5491;SDS011;2768;53.540;10.224;2023-03-01T18:02:02;6.57;;;5.97;;
5491;SDS011;2768;53.540;10.224;2023-03-01T18:07:57;7.67;;;6.97;;
5491;SDS011;2768;53.540;10.224;2023-03-01T18:13:50;8.40;;;7.60;;
5491;SDS011;2768;53.540;10.224;2023-03-01T18:19:45;9.87;;;7.17;;
5491;SDS011;2768;53.540;10.224;2023-03-01T18:25:40;11.30;;;9.40;;
5491;SDS011;2768;53.540;10.224;2023-03-01T18:31:33;9.63;;;8.60;;
5491;SDS011;2768;53.540;10.224;2023-03-01T18:37:26;10.50;;;9.50;;
5491;SDS011;2768;53.540;10.224;2023-03-01T18:43:21;11.60;;;9.40;;
5491;SDS011;2768;53.540;10.224;2023-03-01T18:49:14;12.83;;;10.07;;
5491;SDS011;2768;53.540;10.224;2023-03-01T18:55:08;12.43;;;11.13;;
5491;SDS011;2768;53.540;10.224;2023-03-01T19:01:04;15.23;;;10.80;;
5491;SDS011;2768;53.540;10.224;2023-03-01T19:06:58;13.33;;;12.03;;
5491;SDS011;2768;53.540;10.224;2023-03-01T19:12:52;17.33;;;13.27;;
5491;SDS011;2768;53.540;10.224;2023-03-01T19:18:47;18.50;;;14.60;;
5491;SDS011;2768;53.540;10.224;2023-03-01T19:24:42;16.43;;;14.20;;
5491;SDS011;2768;53.540;10.224;2023-03-01T19:30:36;18.87;;;15.00;;
5491;SDS011;2768;53.540;10.224;2023-03-01T19:36:31;20.03;;;17.07;;
5491;SDS011;2768;53.540;10.224;2023-03-01T19:42:25;19.73;;;15.80;;
5491;SDS011;2768;53.540;10.224;2023-03-01T19:48:18;20.50;;;17.57;;
5491;SDS011;2768;53.540;10.224;2023-03-01T19:54:13;23.83;;;16.47;;
5491;SDS011;2768;53.540;10.224;2023-03-01T20:00:12;20.07;;;16.80;;
5491;SDS011;2768;53.540;10.224;2023-03-01T20:06:07;18.73;;;15.33;;
5491;SDS011;2768;53.540;10.224;2023-03-01T20:12:04;16.80;;;15.00;;
5491;SDS011;2768;53.540;10.224;2023-03-01T20:17:57;16.90;;;15.10;;
5491;SDS011;2768;53.540;10.224;2023-03-01T20:23:51;20.33;;;16.27;;
5491;SDS011;2768;53.540;10.224;2023-03-01T20:29:45;16.67;;;14.17;;
5491;SDS011;2768;53.540;10.224;2023-03-01T20:35:42;16.67;;;13.00;;
5491;SDS011;2768;53.540;10.224;2023-03-01T20:41:35;18.03;;;14.57;;
5491;SDS011;2768;53.540;10.224;2023-03-01T20:47:30;14.90;;;12.67;;
5491;SDS011;2768;53.540;10.224;2023-03-01T20:53:23;16.13;;;13.60;;
5491;SDS011;2768;53.540;10.224;2023-03-01T20:59:17;16.40;;;14.10;;
5491;SDS011;2768;53.540;10.224;2023-03-01T21:05:12;15.43;;;13.50;;
5491;SDS011;2768;53.540;10.224;2023-03-01T21:11:05;19.80;;;14.60;;
5491;SDS011;2768;53.540;10.224;2023-03-01T21:16:58;20.00;;;15.50;;
5491;SDS011;2768;53.540;10.224;2023-03-01T21:22:52;16.13;;;14.00;;
5491;SDS011;2768;53.540;10.224;2023-03-01T21:28:46;17.30;;;13.97;;
